Time;durP1;ratioP1;P1;durP2;ratioP2;P2;SDS_P1;SDS_P2;PMS_P1;PMS_P2;Temp;Humidity;BMP_temperature;BMP_pressure;BME280_temperature;BME280_humidity;BME280_pressure;Samples;Min_cycle;Max_cycle;Signal;HPM_P1;HPM_P2
2021/04/24 00:00:11;;;;;;;13.52;7.10;;;;;;;5.48;100.00;102101.59;5079014;28;20044;-66
2021/04/24 00:02:39;;;;;;;11.77;6.75;;;;;;;5.41;100.00;102100.28;5074717;28;20043;-66
2021/04/24 00:05:09;;;;;;;13.02;6.22;;;;;;;5.37;100.00;102112.88;5080693;28;20196;-65
2021/04/24 00:07:36;;;;;;;11.07;6.60;;;;;;;5.21;100.00;102105.06;5075968;28;20041;-66
2021/04/24 00:10:05;;;;;;;12.88;6.55;;;;;;;5.22;100.00;102116.53;5078648;28;20043;-66
2021/04/24 00:12:32;;;;;;;13.25;6.70;;;;;;;5.34;100.00;102100.69;5076368;28;20044;-65
2021/04/24 00:14:59;;;;;;;12.75;6.60;;;;;;;5.18;100.00;102113.19;5080084;28;20047;-65
2021/04/24 00:17:26;;;;;;;14.90;7.72;;;;;;;5.24;100.00;102117.25;5078236;28;20047;-65
2021/04/24 00:19:53;;;;;;;14.85;7.00;;;;;;;5.15;100.00;102116.88;5078131;28;20040;-66
2021/04/24 00:22:20;;;;;;;14.35;7.00;;;;;;;5.16;100.00;102115.09;5076064;28;20488;-65
2021/04/24 00:24:48;;;;;;;16.42;7.13;;;;;;;5.28;100.00;102116.97;5076177;28;20040;-65
2021/04/24 00:27:15;;;;;;;15.38;7.18;;;;;;;5.17;100.00;102114.13;5079343;28;20368;-66
2021/04/24 00:29:42;;;;;;;14.27;6.53;;;;;;;5.16;100.00;102115.09;5077452;28;20040;-65
2021/04/24 00:32:09;;;;;;;15.68;6.60;;;;;;;5.00;100.00;102107.25;5075107;28;20040;-65
2021/04/24 00:34:36;;;;;;;10.65;6.05;;;;;;;4.88;100.00;102113.31;5075076;28;20127;-66
2021/04/24 00:37:03;;;;;;;14.35;6.65;;;;;;;4.95;100.00;102110.19;5073487;28;20329;-66
2021/04/24 00:39:30;;;;;;;15.25;7.68;;;;;;;4.85;100.00;102109.06;5078189;28;20440;-65
2021/04/24 00:41:58;;;;;;;19.23;8.15;;;;;;;4.81;100.00;102116.31;5079555;28;20127;-65
2021/04/24 00:44:26;;;;;;;17.38;7.53;;;;;;;4.85;100.00;102113.47;5075564;28;20393;-65
2021/04/24 00:46:52;;;;;;;14.38;6.72;;;;;;;4.71;100.00;102112.53;5077989;28;20365;-66
2021/04/24 00:49:19;;;;;;;13.20;7.20;;;;;;;4.70;100.00;102125.88;5079443;28;20071;-66
2021/04/24 00:51:46;;;;;;;19.23;6.35;;;;;;;4.69;100.00;102118.88;5078851;28;20040;-66
2021/04/24 00:54:13;;;;;;;19.42;8.10;;;;;;;4.73;100.00;102115.09;5078152;28;20052;-65
2021/04/24 00:56:40;;;;;;;17.90;6.57;;;;;;;4.98;100.00;102114.44;5080252;28;20037;-65
2021/04/24 00:59:08;;;;;;;13.13;6.45;;;;;;;4.94;100.00;102112.94;5078460;28;20040;-66
2021/04/24 01:01:35;;;;;;;23.10;6.07;;;;;;;4.84;100.00;102112.63;5081917;28;20037;-65
2021/04/24 01:04:02;;;;;;;14.63;7.25;;;;;;;4.63;100.00;102104.22;5080410;28;20105;-65
2021/04/24 01:06:29;;;;;;;19.77;8.93;;;;;;;4.67;100.00;102100.44;5084138;28;20044;-66
2021/04/24 01:08:56;;;;;;;19.88;8.10;;;;;;;4.62;100.00;102107.78;5081237;28;20036;-66
2021/04/24 01:11:23;;;;;;;15.77;6.95;;;;;;;4.60;100.00;102105.25;5079982;28;20055;-66
2021/04/24 01:13:50;;;;;;;15.88;7.93;;;;;;;4.53;100.00;102095.13;5079222;28;20052;-66
2021/04/24 01:16:18;;;;;;;18.48;7.22;;;;;;;4.51;100.00;102083.78;5080734;28;20033;-66
2021/04/24 01:18:45;;;;;;;19.35;7.85;;;;;;;4.47;100.00;102088.41;5080418;28;20324;-66
2021/04/24 01:21:12;;;;;;;15.82;7.50;;;;;;;4.59;100.00;102082.38;5079814;28;20044;-66
2021/04/24 01:23:41;;;;;;;22.15;8.15;;;;;;;4.48;100.00;102085.69;5078481;28;20047;-65
2021/04/24 01:26:08;;;;;;;18.33;7.47;;;;;;;4.44;100.00;102081.50;5079446;28;20048;-65
2021/04/24 01:28:34;;;;;;;14.20;7.47;;;;;;;4.43;100.00;102077.16;5083044;28;20033;-65
2021/04/24 01:31:02;;;;;;;17.20;7.43;;;;;;;4.39;100.00;102080.91;5082448;28;20040;-65
2021/04/24 01:33:29;;;;;;;13.02;6.55;;;;;;;4.30;100.00;102073.56;5078079;28;20298;-65
2021/04/24 01:35:56;;;;;;;14.55;7.32;;;;;;;4.56;100.00;102079.06;5081428;28;20459;-65
2021/04/24 01:38:23;;;;;;;14.70;8.27;;;;;;;4.52;100.00;102080.19;5081030;28;20044;-65
2021/04/24 01:40:51;;;;;;;16.65;7.30;;;;;;;4.34;100.00;102075.06;5081079;28;20451;-65
2021/04/24 01:43:18;;;;;;;12.70;7.05;;;;;;;4.30;100.00;102074.41;5076224;28;20047;-65
2021/04/24 01:45:45;;;;;;;17.40;8.07;;;;;;;4.26;100.00;102077.31;5082400;28;20058;-65
2021/04/24 01:48:12;;;;;;;15.77;6.95;;;;;;;4.31;100.00;102077.91;5082672;28;20044;-65
2021/04/24 01:50:41;;;;;;;18.25;8.30;;;;;;;4.27;100.00;102077.22;5080210;28;20148;-65
2021/04/24 01:53:11;;;;;;;16.42;7.07;;;;;;;4.20;100.00;102069.75;5080906;28;20508;-65
2021/04/24 01:55:40;;;;;;;18.77;7.45;;;;;;;4.24;100.00;102073.91;5077366;28;20044;-65
2021/04/24 01:58:09;;;;;;;17.08;7.00;;;;;;;4.22;100.00;102073.16;5082533;28;20047;-65
2021/04/24 02:00:39;;;;;;;18.85;7.60;;;;;;;4.11;100.00;102072.00;5080083;28;20047;-65
2021/04/24 02:03:09;;;;;;;14.93;7.10;;;;;;;4.23;100.00;102067.78;5080226;28;20122;-65
2021/04/24 02:05:37;;;;;;;18.27;7.60;;;;;;;4.21;100.00;102074.09;5080403;28;20040;-65
2021/04/24 02:08:07;;;;;;;16.08;8.05;;;;;;;4.26;100.00;102077.31;5080408;28;20037;-65
2021/04/24 02:10:35;;;;;;;18.30;7.20;;;;;;;4.24;100.00;102071.25;5081198;28;20506;-65
2021/04/24 02:13:04;;;;;;;20.45;7.60;;;;;;;4.04;100.00;102061.84;5077032;28;20051;-65
2021/04/24 02:15:32;;;;;;;16.73;7.43;;;;;;;4.17;100.00;102081.38;5080774;28;20062;-65
2021/04/24 02:17:59;;;;;;;18.42;7.82;;;;;;;4.11;100.00;102074.66;5083782;28;20063;-65
2021/04/24 02:20:26;;;;;;;18.73;8.23;;;;;;;4.02;100.00;102071.69;5076118;28;20086;-65
2021/04/24 02:22:53;;;;;;;18.88;8.10;;;;;;;4.00;100.00;102068.25;5079082;28;20347;-65
2021/04/24 02:25:21;;;;;;;21.45;8.95;;;;;;;3.89;100.00;102087.41;5083520;28;20055;-65
2021/04/24 02:27:48;;;;;;;15.07;7.53;;;;;;;3.99;100.00;102077.16;5079101;28;20043;-65
2021/04/24 02:30:17;;;;;;;18.05;8.77;;;;;;;3.90;100.00;102081.19;5080811;28;20059;-65
2021/04/24 02:32:46;;;;;;;15.45;6.60;;;;;;;3.79;100.00;102080.00;5078010;28;20458;-65
2021/04/24 02:35:17;;;;;;;17.00;7.57;;;;;;;3.76;100.00;102090.75;5079193;28;20055;-65
2021/04/24 02:37:44;;;;;;;23.83;8.27;;;;;;;3.75;100.00;102090.84;5079715;28;20060;-65
2021/04/24 02:40:14;;;;;;;18.02;8.55;;;;;;;3.67;100.00;102088.66;5078895;28;20044;-65
2021/04/24 02:42:41;;;;;;;17.13;8.32;;;;;;;3.71;100.00;102090.16;5078587;28;20051;-65
2021/04/24 02:45:10;;;;;;;16.02;7.78;;;;;;;3.69;100.00;102083.28;5076849;28;20041;-65
2021/04/24 02:47:37;;;;;;;25.65;9.52;;;;;;;3.68;100.00;102085.03;5081924;28;20068;-65
2021/04/24 02:50:08;;;;;;;21.50;8.05;;;;;;;3.76;100.00;102084.63;5077334;28;20117;-65
2021/04/24 02:52:35;;;;;;;22.92;9.43;;;;;;;3.75;100.00;102090.84;5074702;28;20045;-65
2021/04/24 02:55:04;;;;;;;21.52;9.30;;;;;;;3.89;100.00;102079.47;5080368;28;20138;-65
2021/04/24 02:57:31;;;;;;;17.40;7.90;;;;;;;3.92;100.00;102081.94;5077207;28;20313;-65
2021/04/24 02:59:58;;;;;;;16.58;8.38;;;;;;;3.83;100.00;102085.09;5081627;28;20044;-65
2021/04/24 03:02:25;;;;;;;21.05;8.00;;;;;;;3.82;100.00;102083.41;5075664;28;20044;-65
2021/04/24 03:04:52;;;;;;;21.83;7.10;;;;;;;3.83;100.00;102082.47;5076834;28;20059;-65
2021/04/24 03:07:19;;;;;;;16.23;8.05;;;;;;;3.81;100.00;102081.72;5077193;28;20040;-65
2021/04/24 03:09:46;;;;;;;20.25;8.02;;;;;;;3.73;100.00;102077.72;5078076;28;20052;-65
2021/04/24 03:12:13;;;;;;;14.70;6.53;;;;;;;3.68;100.00;102074.47;5078105;28;20040;-65
2021/04/24 03:14:41;;;;;;;17.05;8.32;;;;;;;3.62;100.00;102073.03;5079857;28;20045;-65
2021/04/24 03:17:09;;;;;;;19.58;7.50;;;;;;;3.69;100.00;102070.91;5081084;28;20040;-65
2021/04/24 03:19:36;;;;;;;19.85;6.78;;;;;;;3.58;100.00;102078.59;5076776;28;20048;-65
2021/04/24 03:22:03;;;;;;;19.23;7.93;;;;;;;3.54;100.00;102059.41;5076981;28;20049;-65
2021/04/24 03:24:31;;;;;;;20.83;8.60;;;;;;;3.61;100.00;102058.16;5075770;28;20052;-65
2021/04/24 03:26:58;;;;;;;11.90;6.35;;;;;;;3.66;100.00;102060.50;5077943;28;20044;-65
2021/04/24 03:29:25;;;;;;;17.63;7.57;;;;;;;3.66;100.00;102055.22;5078581;28;20039;-66
2021/04/24 03:31:52;;;;;;;25.23;7.63;;;;;;;3.78;100.00;102059.81;5078538;28;20062;-65
2021/04/24 03:34:19;;;;;;;20.35;8.05;;;;;;;3.78;100.00;102070.38;5075887;28;20492;-65
2021/04/24 03:36:46;;;;;;;16.52;7.60;;;;;;;3.67;100.00;102071.91;5078538;28;20048;-65
2021/04/24 03:39:13;;;;;;;12.68;7.13;;;;;;;3.40;100.00;102073.41;5077158;28;20545;-65
2021/04/24 03:41:41;;;;;;;15.95;7.20;;;;;;;3.29;100.00;102073.16;5080636;28;20071;-66
2021/04/24 03:44:08;;;;;;;17.50;8.20;;;;;;;3.31;100.00;102073.06;5076796;28;20036;-65
2021/04/24 03:46:35;;;;;;;19.45;7.72;;;;;;;3.22;100.00;102070.00;5080953;28;20036;-65
2021/04/24 03:49:02;;;;;;;26.65;8.50;;;;;;;3.25;100.00;102072.47;5079244;28;20047;-65
2021/04/24 03:51:28;;;;;;;15.15;6.55;;;;;;;3.27;100.00;102073.25;5077442;28;20466;-65
2021/04/24 03:53:55;;;;;;;14.40;7.78;;;;;;;3.22;100.00;102075.28;5077958;28;20044;-65
2021/04/24 03:56:22;;;;;;;21.60;6.60;;;;;;;3.16;100.00;102074.75;5075032;28;20443;-65
2021/04/24 03:58:50;;;;;;;16.52;7.88;;;;;;;3.05;100.00;102070.06;5078418;28;20066;-65
2021/04/24 04:01:17;;;;;;;16.02;6.78;;;;;;;3.04;100.00;102063.94;5077080;28;20353;-65
2021/04/24 04:03:45;;;;;;;14.80;7.15;;;;;;;3.03;100.00;102070.13;5073312;28;20036;-65
2021/04/24 04:06:12;;;;;;;14.85;7.10;;;;;;;3.00;100.00;102080.84;5077690;28;20054;-65
2021/04/24 04:08:39;;;;;;;18.20;8.13;;;;;;;2.94;100.00;102073.28;5079530;28;20051;-65
2021/04/24 04:11:06;;;;;;;15.52;7.40;;;;;;;3.02;100.00;102076.38;5077513;28;20067;-65
2021/04/24 04:13:33;;;;;;;16.90;7.32;;;;;;;3.06;100.00;102066.47;5078150;28;20044;-65
2021/04/24 04:16:01;;;;;;;17.17;8.20;;;;;;;3.04;100.00;102071.84;5079695;28;20056;-65
2021/04/24 04:18:28;;;;;;;20.80;7.22;;;;;;;3.05;100.00;102070.06;5080847;28;20048;-65
2021/04/24 04:20:55;;;;;;;16.42;6.70;;;;;;;3.14;100.00;102079.28;5078311;28;20051;-65
2021/04/24 04:23:23;;;;;;;21.52;8.57;;;;;;;3.10;100.00;102084.72;5073700;28;20032;-66
2021/04/24 04:25:51;;;;;;;16.98;8.73;;;;;;;3.05;100.00;102084.13;5076045;28;20048;-65
2021/04/24 04:28:19;;;;;;;21.95;8.68;;;;;;;3.08;100.00;102081.31;5077236;28;20040;-65
2021/04/24 04:30:47;;;;;;;18.08;7.57;;;;;;;3.07;100.00;102087.50;5083154;28;20455;-65
2021/04/24 04:33:15;;;;;;;17.70;8.30;;;;;;;2.98;100.00;102093.28;5072469;28;20056;-65
2021/04/24 04:35:43;;;;;;;19.17;8.27;;;;;;;2.96;100.00;102094.31;5079494;28;20047;-65
2021/04/24 04:38:10;;;;;;;18.85;7.28;;;;;;;2.91;100.00;102095.41;5078789;28;20045;-65
2021/04/24 04:40:37;;;;;;;20.20;9.73;;;;;;;2.97;100.00;102094.22;5077925;28;20044;-65
2021/04/24 04:43:05;;;;;;;21.65;7.93;;;;;;;3.01;100.00;102103.69;5075827;28;20040;-65
2021/04/24 04:45:32;;;;;;;15.40;7.90;;;;;;;3.07;100.00;102100.69;5076415;28;20071;-65
2021/04/24 04:47:59;;;;;;;16.25;8.05;;;;;;;3.12;100.00;102099.59;5079152;28;20047;-65
2021/04/24 04:50:29;;;;;;;17.40;7.07;;;;;;;3.19;100.00;102100.97;5076573;28;20063;-65
2021/04/24 04:52:56;;;;;;;15.52;5.72;;;;;;;3.37;100.00;102092.03;5076114;28;20077;-66
2021/04/24 04:55:23;;;;;;;15.98;7.57;;;;;;;3.50;100.00;102086.09;5080527;28;20044;-65
2021/04/24 04:57:51;;;;;;;16.17;6.18;;;;;;;3.54;100.00;102093.75;5076878;28;20044;-65
2021/04/24 05:00:19;;;;;;;16.38;6.75;;;;;;;3.48;100.00;102093.25;5081200;28;20436;-65
2021/04/24 05:02:47;;;;;;;14.82;6.15;;;;;;;3.49;100.00;102093.16;5075274;28;20111;-65
2021/04/24 05:05:15;;;;;;;13.00;5.55;;;;;;;3.44;100.00;102097.84;5078550;28;20129;-65
2021/04/24 05:07:44;;;;;;;13.82;7.15;;;;;;;3.44;100.00;102096.06;5073938;28;20036;-66
2021/04/24 05:10:20;;;;;;;15.57;5.38;;;;;;;3.58;100.00;102094.44;5077798;28;20451;-65
2021/04/24 05:12:47;;;;;;;14.25;6.20;;;;;;;3.53;100.00;102097.34;5076157;28;20064;-66
2021/04/24 05:15:15;;;;;;;16.85;7.30;;;;;;;3.50;100.00;102100.16;5076497;28;20051;-65
2021/04/24 05:17:42;;;;;;;12.93;6.30;;;;;;;3.59;100.00;102104.06;5077948;28;20045;-65
2021/04/24 05:20:10;;;;;;;21.30;6.43;;;;;;;3.62;100.00;102101.25;5075956;28;20056;-66
2021/04/24 05:22:37;;;;;;;16.30;6.05;;;;;;;3.74;100.00;102104.97;5068877;28;20369;-65
2021/04/24 05:25:06;;;;;;;12.05;5.72;;;;;;;3.81;100.00;102103.69;5077034;28;20332;-65
2021/04/24 05:27:35;;;;;;;13.30;5.80;;;;;;;3.91;100.00;102109.31;5080939;28;20417;-65
2021/04/24 05:30:02;;;;;;;10.93;5.82;;;;;;;4.04;100.00;102099.75;5080354;28;20047;-65
2021/04/24 05:32:29;;;;;;;12.90;5.85;;;;;;;4.28;100.00;102096.56;5075376;28;20043;-65
2021/04/24 05:34:56;;;;;;;14.55;6.30;;;;;;;4.65;100.00;102103.19;5074226;28;20040;-66
2021/04/24 05:37:23;;;;;;;18.17;5.75;;;;;;;4.74;100.00;102101.75;5078063;28;20049;-65
2021/04/24 05:39:52;;;;;;;12.57;6.10;;;;;;;4.86;100.00;102094.84;5075573;28;20040;-65
2021/04/24 05:42:26;;;;;;;;;;;;;;;4.98;100.00;102104.69;5074728;28;20067;-65
2021/04/24 05:44:53;;;;;;;13.52;5.13;;;;;;;5.16;100.00;102112.47;5075065;28;20220;-65
2021/04/24 05:47:21;;;;;;;12.80;5.30;;;;;;;5.28;100.00;102109.00;5079473;28;20266;-65
2021/04/24 05:49:48;;;;;;;13.60;5.05;;;;;;;5.57;100.00;102105.47;5079847;28;20040;-65
2021/04/24 05:52:15;;;;;;;10.32;5.07;;;;;;;5.66;100.00;102107.53;5080111;28;20050;-65
2021/04/24 05:54:44;;;;;;;13.18;5.60;;;;;;;5.79;100.00;102113.72;5076033;28;20045;-65
2021/04/24 05:57:11;;;;;;;14.00;5.55;;;;;;;5.88;100.00;102114.06;5080843;28;20052;-65
2021/04/24 05:59:39;;;;;;;9.40;5.07;;;;;;;6.20;100.00;102118.13;5078904;28;20048;-65
2021/04/24 06:02:06;;;;;;;10.73;5.32;;;;;;;6.44;100.00;102120.06;5076556;28;20044;-65
2021/04/24 06:04:33;;;;;;;10.55;5.88;;;;;;;6.51;100.00;102123.16;5081346;28;20143;-65
2021/04/24 06:07:01;;;;;;;12.32;5.60;;;;;;;6.80;100.00;102115.84;5080855;28;20044;-65
2021/04/24 06:09:28;;;;;;;13.60;6.10;;;;;;;6.74;100.00;102126.06;5078604;28;20121;-65
2021/04/24 06:11:55;;;;;;;9.27;5.00;;;;;;;6.52;100.00;102124.84;5078108;28;20040;-65
2021/04/24 06:14:22;;;;;;;11.18;5.38;;;;;;;6.84;100.00;102114.66;5075720;28;20054;-65
2021/04/24 06:16:50;;;;;;;10.57;5.07;;;;;;;7.03;100.00;102122.22;5081444;28;20333;-66
2021/04/24 06:19:17;;;;;;;12.60;5.15;;;;;;;6.97;100.00;102116.47;5079058;28;20098;-65
2021/04/24 06:21:44;;;;;;;12.50;5.75;;;;;;;7.33;100.00;102109.50;5077243;28;20384;-66
2021/04/24 06:24:11;;;;;;;9.70;4.55;;;;;;;7.41;100.00;102115.09;5079117;28;20058;-65
2021/04/24 06:26:38;;;;;;;10.02;5.45;;;;;;;7.77;100.00;102113.41;5082244;28;20032;-65
2021/04/24 06:29:05;;;;;;;11.43;5.45;;;;;;;7.49;100.00;102110.09;5081056;28;20051;-65
2021/04/24 06:31:36;;;;;;;14.32;5.30;;;;;;;7.96;100.00;102117.34;5079096;28;20044;-66
2021/04/24 06:34:05;;;;;;;27.50;8.50;;;;;;;7.37;100.00;102122.47;5075689;28;20490;-65
2021/04/24 06:36:32;;;;;;;11.43;5.60;;;;;;;7.92;100.00;102122.91;5078951;28;20049;-65
2021/04/24 06:38:59;;;;;;;13.20;6.97;;;;;;;8.09;100.00;102128.75;5078906;28;20037;-65
2021/04/24 06:41:26;;;;;;;11.60;6.78;;;;;;;8.03;100.00;102114.13;5077707;28;20036;-65
2021/04/24 06:43:53;;;;;;;9.43;5.05;;;;;;;8.40;100.00;102115.81;5073572;28;20048;-65
2021/04/24 06:46:20;;;;;;;16.38;7.55;;;;;;;8.59;100.00;102110.81;5078015;28;20056;-66
2021/04/24 06:48:48;;;;;;;8.13;4.65;;;;;;;8.23;100.00;102114.44;5076115;28;20443;-65
2021/04/24 06:51:15;;;;;;;15.45;6.53;;;;;;;8.65;100.00;102122.81;5081636;28;20036;-65
2021/04/24 06:53:42;;;;;;;13.15;5.15;;;;;;;8.88;100.00;102112.16;5076195;28;20040;-65
2021/04/24 06:56:10;;;;;;;11.93;5.30;;;;;;;8.84;100.00;102111.53;5078858;28;20054;-65
2021/04/24 06:58:37;;;;;;;10.80;5.13;;;;;;;9.07;100.00;102104.44;5077643;28;20106;-66
2021/04/24 07:01:04;;;;;;;11.00;5.50;;;;;;;9.02;100.00;102106.59;5080378;28;20415;-65
2021/04/24 07:03:31;;;;;;;10.60;5.50;;;;;;;9.75;100.00;102111.44;5078637;28;20352;-66
2021/04/24 07:05:58;;;;;;;11.40;5.78;;;;;;;9.55;100.00;102115.75;5079371;28;20058;-65
2021/04/24 07:08:26;;;;;;;9.43;5.10;;;;;;;9.62;100.00;102114.28;5080186;28;20033;-65
2021/04/24 07:10:53;;;;;;;10.63;5.20;;;;;;;9.73;100.00;102116.06;5078626;28;20052;-66
2021/04/24 07:13:19;;;;;;;10.55;6.45;;;;;;;9.65;100.00;102109.53;5078485;28;20055;-65
2021/04/24 07:15:47;;;;;;;12.60;6.45;;;;;;;9.54;100.00;102114.03;5079528;28;20047;-66
2021/04/24 07:18:14;;;;;;;12.52;5.50;;;;;;;9.92;100.00;102123.38;5078335;28;20040;-66
2021/04/24 07:20:42;;;;;;;14.85;5.93;;;;;;;10.51;100.00;102116.72;5073870;28;20071;-66
2021/04/24 07:23:09;;;;;;;13.93;5.28;;;;;;;10.63;100.00;102121.00;5078780;28;20394;-66
2021/04/24 07:25:37;;;;;;;9.07;5.22;;;;;;;10.70;100.00;102120.47;5079055;28;20344;-67
2021/04/24 07:28:05;;;;;;;11.75;6.10;;;;;;;10.81;100.00;102134.59;5075044;28;20041;-67
2021/04/24 07:30:32;;;;;;;8.30;4.82;;;;;;;10.75;100.00;102124.44;5075708;28;20040;-66
2021/04/24 07:32:59;;;;;;;11.10;5.30;;;;;;;10.38;100.00;102121.41;5077891;28;20048;-65
2021/04/24 07:35:26;;;;;;;10.88;5.25;;;;;;;10.51;100.00;102124.72;5074550;28;20048;-66
2021/04/24 07:37:52;;;;;;;12.93;5.10;;;;;;;10.39;100.00;102117.75;5078403;28;20050;-66
2021/04/24 07:40:19;;;;;;;12.93;4.70;;;;;;;10.06;100.00;102124.91;5074678;28;20040;-65
2021/04/24 07:42:47;;;;;;;11.52;4.70;;;;;;;10.09;100.00;102125.53;5078068;28;21889;-65
2021/04/24 07:45:14;;;;;;;10.13;4.75;;;;;;;10.48;100.00;102120.47;5080937;28;20036;-65
2021/04/24 07:47:42;;;;;;;7.38;3.95;;;;;;;10.10;100.00;102118.34;5078899;28;20047;-65
2021/04/24 07:50:10;;;;;;;7.63;4.40;;;;;;;10.68;100.00;102118.78;5077658;28;20070;-65
2021/04/24 07:52:37;;;;;;;7.30;4.07;;;;;;;10.46;100.00;102114.44;5073432;28;20045;-65
2021/04/24 07:55:06;;;;;;;10.95;5.38;;;;;;;10.33;100.00;102119.06;5079103;28;20314;-65
2021/04/24 07:57:33;;;;;;;9.40;4.85;;;;;;;10.94;100.00;102120.16;5079159;28;20041;-65
2021/04/24 08:00:01;;;;;;;8.38;4.97;;;;;;;10.99;100.00;102126.81;5076950;28;20032;-65
2021/04/24 08:02:27;;;;;;;9.07;5.00;;;;;;;11.59;100.00;102122.50;5074578;28;20051;-66
2021/04/24 08:04:55;;;;;;;9.77;5.53;;;;;;;11.26;100.00;102116.50;5076476;28;20036;-66
2021/04/24 08:07:22;;;;;;;7.38;4.50;;;;;;;11.34;100.00;102114.84;5075955;28;20051;-65
2021/04/24 08:09:49;;;;;;;15.15;5.20;;;;;;;11.85;100.00;102112.09;5076188;28;20045;-66
2021/04/24 08:12:16;;;;;;;11.85;5.30;;;;;;;12.32;100.00;102114.06;5077293;28;20051;-66
2021/04/24 08:14:43;;;;;;;10.80;5.70;;;;;;;11.89;100.00;102114.38;5074387;28;20317;-66
2021/04/24 08:17:13;;;;;;;9.57;4.57;;;;;;;11.91;100.00;102119.59;5077720;28;20035;-66
2021/04/24 08:19:40;;;;;;;8.15;4.07;;;;;;;11.85;100.00;102118.31;5076933;28;20037;-65
2021/04/24 08:22:11;;;;;;;7.22;4.53;;;;;;;11.80;100.00;102117.88;5075323;28;20126;-65
2021/04/24 08:24:38;;;;;;;10.18;4.18;;;;;;;11.42;100.00;102126.69;5073668;28;20047;-65
2021/04/24 08:27:05;;;;;;;10.93;4.90;;;;;;;11.91;100.00;102116.03;5077754;28;20044;-65
2021/04/24 08:29:33;;;;;;;9.10;4.15;;;;;;;12.01;100.00;102116.94;5078606;28;20044;-65
2021/04/24 08:32:02;;;;;;;12.48;4.68;;;;;;;11.29;100.00;102122.41;5077014;28;20055;-65
2021/04/24 08:34:29;;;;;;;8.32;4.20;;;;;;;10.92;100.00;102124.81;5073900;28;20095;-65
2021/04/24 08:36:57;;;;;;;14.43;4.60;;;;;;;11.52;100.00;102116.84;5074408;28;20044;-65
2021/04/24 08:39:25;;;;;;;11.02;5.03;;;;;;;11.84;100.00;102113.09;5081571;28;20037;-65
2021/04/24 08:41:52;;;;;;;10.65;5.00;;;;;;;12.31;100.00;102123.13;5079719;28;20345;-65
2021/04/24 08:44:19;;;;;;;8.80;4.85;;;;;;;12.06;100.00;102120.03;5079981;28;20050;-65
2021/04/24 08:46:47;;;;;;;13.73;5.45;;;;;;;13.28;100.00;102121.97;5081320;28;20325;-65
2021/04/24 08:49:16;;;;;;;13.50;5.22;;;;;;;13.08;100.00;102123.88;5076567;28;20052;-65
2021/04/24 08:51:45;;;;;;;8.43;5.15;;;;;;;12.92;100.00;102132.56;5081175;28;20040;-65
2021/04/24 08:54:12;;;;;;;11.52;4.90;;;;;;;13.40;100.00;102115.44;5073599;28;20119;-65
2021/04/24 08:56:39;;;;;;;8.93;5.15;;;;;;;12.92;100.00;102121.84;5077472;28;20047;-65
2021/04/24 08:59:06;;;;;;;11.50;6.40;;;;;;;13.07;100.00;102114.19;5079036;28;20425;-65
2021/04/24 09:01:37;;;;;;;10.93;4.88;;;;;;;13.42;100.00;102107.22;5077415;28;20040;-65
2021/04/24 09:04:05;;;;;;;12.27;5.28;;;;;;;13.78;100.00;102104.59;5073833;28;20291;-65
2021/04/24 09:06:33;;;;;;;9.70;4.82;;;;;;;13.34;100.00;102110.66;5077364;28;20043;-65
2021/04/24 09:09:03;;;;;;;10.15;5.10;;;;;;;13.69;100.00;102108.19;5076790;28;20328;-65
2021/04/24 09:11:39;;;;;;;10.90;5.03;;;;;;;14.12;100.00;102104.72;5075950;28;20028;-65
2021/04/24 09:14:07;;;;;;;11.32;5.20;;;;;;;14.17;100.00;102098.88;5076270;28;20354;-65
2021/04/24 09:16:35;;;;;;;9.52;5.15;;;;;;;14.00;100.00;102095.22;5075833;28;20560;-66
2021/04/24 09:19:03;;;;;;;9.10;5.78;;;;;;;14.03;100.00;102094.91;5075498;28;20436;-65
2021/04/24 09:21:31;;;;;;;8.02;4.63;;;;;;;15.36;100.00;102091.16;5078499;28;20442;-65
2021/04/24 09:23:58;;;;;;;9.85;4.03;;;;;;;14.01;100.00;102088.88;5076619;28;20044;-65
2021/04/24 09:26:27;;;;;;;9.75;4.90;;;;;;;13.98;100.00;102081.13;5082503;28;20215;-64
2021/04/24 09:29:01;;;;;;;11.23;4.95;;;;;;;14.89;100.00;102081.75;5082981;28;20041;-65
2021/04/24 09:31:28;;;;;;;10.70;4.90;;;;;;;15.12;100.00;102088.22;5078283;28;20059;-65
2021/04/24 09:33:57;;;;;;;7.20;4.40;;;;;;;14.73;100.00;102082.47;5076979;28;20052;-65
2021/04/24 09:36:32;;;;;;;6.88;3.90;;;;;;;15.44;100.00;102083.97;5077155;28;20416;-65
2021/04/24 09:39:01;;;;;;;12.82;4.13;;;;;;;14.63;100.00;102079.94;5079778;28;20036;-66
2021/04/24 09:41:33;;;;;;;8.25;4.38;;;;;;;14.72;100.00;102072.75;5078559;28;20387;-66
2021/04/24 09:44:03;;;;;;;7.65;4.50;;;;;;;15.41;100.00;102078.91;5076904;28;20040;-65
2021/04/24 09:46:33;;;;;;;7.70;3.88;;;;;;;14.35;100.00;102068.47;5079701;28;20043;-65
2021/04/24 09:49:11;;;;;;;6.28;3.60;;;;;;;13.77;100.00;102051.91;5018564;28;20061;-65
2021/04/24 09:51:41;;;;;;;7.57;3.83;;;;;;;13.74;100.00;102055.72;5018523;28;20062;-65
2021/04/24 09:54:09;;;;;;;8.63;3.80;;;;;;;14.07;100.00;102052.47;5017027;28;20457;-65
2021/04/24 09:56:38;;;;;;;7.88;4.05;;;;;;;15.18;100.00;102056.28;5019468;28;20547;-65
2021/04/24 09:59:07;;;;;;;8.50;4.00;;;;;;;14.66;100.00;102057.25;5017876;28;20041;-65
2021/04/24 10:01:36;;;;;;;9.32;3.95;;;;;;;14.56;100.00;102058.19;5016081;28;20357;-66
2021/04/24 10:04:04;;;;;;;8.90;3.70;;;;;;;14.89;100.00;102047.63;5013183;28;20056;-65
2021/04/24 10:06:35;;;;;;;6.28;4.03;;;;;;;14.80;100.00;102056.66;5032871;28;20096;-65
2021/04/24 10:09:12;;;;;;;6.80;4.22;;;;;;;14.28;100.00;102050.28;5079867;28;20037;-65
2021/04/24 10:11:41;;;;;;;7.47;4.35;;;;;;;14.71;95.63;102049.56;5078512;28;20032;-65
2021/04/24 10:14:08;;;;;;;8.60;4.50;;;;;;;14.97;100.00;102050.34;5078376;28;20055;-65
2021/04/24 10:16:36;;;;;;;10.85;4.45;;;;;;;15.73;100.00;102044.94;5080192;28;20246;-66
2021/04/24 10:19:06;;;;;;;8.25;4.07;;;;;;;14.61;95.57;102045.09;5080321;28;20037;-65
2021/04/24 10:21:34;;;;;;;8.77;4.38;;;;;;;15.58;100.00;102036.72;5079487;28;20044;-65
2021/04/24 10:24:03;;;;;;;9.75;4.57;;;;;;;15.39;97.25;102034.31;5080114;28;20043;-66
2021/04/24 10:26:30;;;;;;;7.35;4.03;;;;;;;16.14;88.25;102025.28;5078462;28;20421;-65
2021/04/24 10:28:59;;;;;;;9.18;4.47;;;;;;;15.20;84.62;102028.22;5081504;28;20040;-66
2021/04/24 10:31:27;;;;;;;8.27;4.45;;;;;;;15.30;100.00;102034.28;5079761;28;20035;-66
2021/04/24 10:33:55;;;;;;;10.85;4.35;;;;;;;14.45;100.00;102031.59;5076111;28;20079;-66
2021/04/24 10:36:23;;;;;;;8.60;4.28;;;;;;;14.84;100.00;102022.22;5080264;28;20058;-65
2021/04/24 10:38:51;;;;;;;8.40;4.20;;;;;;;14.63;100.00;102027.00;5081954;28;20040;-64
2021/04/24 10:41:27;;;;;;;7.82;3.83;;;;;;;14.66;100.00;102033.06;5080994;28;20048;-65
2021/04/24 10:43:59;;;;;;;9.98;3.95;;;;;;;15.05;100.00;102030.69;5077099;28;20036;-65
2021/04/24 10:46:28;;;;;;;7.63;4.25;;;;;;;15.60;80.43;102029.28;5079709;28;20043;-65
2021/04/24 10:49:18;;;;;;;9.02;4.82;;;;;;;15.20;100.00;102032.78;5078231;28;20159;-66
2021/04/24 10:51:53;;;;;;;6.63;4.13;;;;;;;15.60;100.00;102028.47;5077628;28;20041;-66
2021/04/24 10:54:20;;;;;;;11.93;4.43;;;;;;;15.18;91.84;102030.22;5073139;28;20049;-65
2021/04/24 10:56:47;;;;;;;8.98;4.50;;;;;;;14.53;100.00;102030.78;5077943;28;20041;-65
2021/04/24 10:59:25;;;;;;;8.73;4.80;;;;;;;14.29;100.00;102022.41;5078158;28;20445;-65
2021/04/24 11:02:11;;;;;;;7.38;4.60;;;;;;;15.15;83.67;102028.72;5077418;28;20048;-66
2021/04/24 11:04:46;;;;;;;9.27;5.28;;;;;;;15.05;100.00;102011.03;5073185;28;20040;-65
2021/04/24 11:07:22;;;;;;;7.53;3.93;;;;;;;14.58;91.93;102013.16;5076296;28;20041;-65
2021/04/24 11:10:21;;;;;;;7.72;5.25;;;;;;;15.94;98.99;102006.78;5077852;28;20428;-65
2021/04/24 11:12:49;;;;;;;10.60;4.95;;;;;;;15.70;100.00;102010.28;5060793;28;20249;-65
2021/04/24 11:15:19;;;;;;;7.55;4.53;;;;;;;16.16;86.06;102013.31;5078016;28;20063;-66
2021/04/24 11:17:46;;;;;;;8.10;4.80;;;;;;;16.10;100.00;102007.78;5074036;28;20090;-65
2021/04/24 11:20:48;;;;;;;10.98;4.90;;;;;;;16.17;100.00;102015.00;5076980;28;20047;-66